Terryville, New York
Current Conditions -  °F | °C
As of 3:37 AM on Friday 28 Nov 2014 (Local Time) from KISP Reporting Station
Broken Clouds Broken Clouds  
Wind Chill: 26°   Ceiling: 2400
Heat Index: 32°   Visibility: 10mi
Dew Point: 26°   Wind: 6mph
Humidity: 79%   Direction: 300°WNW
Pressure: 30.04"   Gusts: NA
Location:  40.91°N, 73.07°W
Report Text: KISP 280837Z AUTO 30005KT 10SM BKN024 00/M03 A3004 RMK AO2 T00001033
Loading
Personal Weather Stations






























Interactive Weather Map New forecast layout! Learn more

10-Day Weather Forecast

Advertisements
Track Severe Weather on mobile